Time;durP1;ratioP1;P1;durP2;ratioP2;P2;SDS_P1;SDS_P2;PMS_P1;PMS_P2;Temp;Humidity;BMP_temperature;BMP_pressure;BME280_temperature;BME280_humidity;BME280_pressure;Samples;Min_cycle;Max_cycle;Signal;HPM_P1;HPM_P2
2022/11/14 00:01:53;;;;;;;;;;;19.30;54.80;;;;;;5016256;28;19928;-73
2022/11/14 00:04:19;;;;;;;;;;;19.30;54.80;;;;;;5051609;28;19924;-72
2022/11/14 00:06:44;;;;;;;;;;;19.30;54.90;;;;;;5051167;28;20313;-73
2022/11/14 00:09:10;;;;;;;;;;;19.20;54.70;;;;;;5049900;28;20309;-72
2022/11/14 00:11:35;;;;;;;;;;;19.20;54.60;;;;;;5052137;28;20014;-71
2022/11/14 00:14:00;;;;;;;;;;;19.20;54.70;;;;;;5052104;28;19966;-72
2022/11/14 00:16:26;;;;;;;;;;;19.20;54.60;;;;;;5032758;28;19913;-72
2022/11/14 00:18:52;;;;;;;;;;;19.20;54.70;;;;;;5051420;28;19917;-72
2022/11/14 00:21:17;;;;;;;;;;;19.20;54.60;;;;;;5053993;28;19919;-73
2022/11/14 00:23:43;;;;;;;;;;;19.20;54.60;;;;;;5036153;28;19916;-72
2022/11/14 00:26:08;;;;;;;;;;;19.20;54.50;;;;;;5054004;28;19939;-72
2022/11/14 00:28:34;;;;;;;;;;;19.10;54.50;;;;;;5032583;28;20285;-73
2022/11/14 00:30:59;;;;;;;;;;;19.10;54.60;;;;;;5052168;28;19912;-72
2022/11/14 00:33:25;;;;;;;;;;;19.10;54.70;;;;;;5052716;28;19912;-72
2022/11/14 00:35:51;;;;;;;;;;;19.10;54.80;;;;;;5049232;28;19913;-73
2022/11/14 00:38:16;;;;;;;;;;;19.10;54.80;;;;;;5035100;28;19912;-73
2022/11/14 00:40:42;;;;;;;;;;;19.10;54.70;;;;;;5053315;28;19920;-72
2022/11/14 00:43:07;;;;;;;;;;;19.10;54.70;;;;;;5052279;28;20007;-73
2022/11/14 00:45:33;;;;;;;;;;;19.10;54.60;;;;;;5030738;28;19913;-72
2022/11/14 00:47:58;;;;;;;;;;;19.10;54.50;;;;;;5053004;28;19913;-72
2022/11/14 00:50:23;;;;;;;;;;;19.10;54.60;;;;;;5051865;28;19923;-72
2022/11/14 00:52:49;;;;;;;;;;;19.00;54.50;;;;;;5033727;28;20483;-72
2022/11/14 00:55:14;;;;;;;;;;;19.00;54.50;;;;;;5053361;28;20438;-71
2022/11/14 00:57:40;;;;;;;;;;;19.00;54.60;;;;;;5052739;28;20349;-72
2022/11/14 01:00:06;;;;;;;;;;;19.00;54.60;;;;;;5052928;28;19908;-73
2022/11/14 01:02:31;;;;;;;;;;;19.00;54.40;;;;;;5049913;28;19913;-72
2022/11/14 01:04:56;;;;;;;;;;;19.00;54.50;;;;;;5051736;28;19908;-72
2022/11/14 01:07:22;;;;;;;;;;;19.00;54.40;;;;;;5028883;28;19916;-72
2022/11/14 01:09:47;;;;;;;;;;;19.00;54.30;;;;;;5052274;28;19912;-73
2022/11/14 01:12:13;;;;;;;;;;;19.00;54.60;;;;;;5031306;28;20008;-72
2022/11/14 01:14:39;;;;;;;;;;;19.00;54.60;;;;;;5044007;28;19924;-73
2022/11/14 01:17:04;;;;;;;;;;;19.00;54.50;;;;;;5034493;28;19916;-72
2022/11/14 01:19:30;;;;;;;;;;;19.00;54.40;;;;;;5052965;28;20348;-72
2022/11/14 01:21:55;;;;;;;;;;;19.00;54.50;;;;;;5050115;28;20016;-73
2022/11/14 01:24:20;;;;;;;;;;;19.00;55.10;;;;;;5051596;28;19948;-72
2022/11/14 01:26:46;;;;;;;;;;;19.00;54.50;;;;;;5033020;28;19913;-72
2022/11/14 01:29:11;;;;;;;;;;;19.00;54.50;;;;;;5033819;28;19913;-72
2022/11/14 01:31:37;;;;;;;;;;;19.00;55.10;;;;;;5050936;28;19917;-72
2022/11/14 01:34:02;;;;;;;;;;;19.00;54.40;;;;;;5051173;28;20004;-72
2022/11/14 01:36:28;;;;;;;;;;;19.00;54.30;;;;;;5039827;28;19917;-72
2022/11/14 01:38:53;;;;;;;;;;;18.90;54.30;;;;;;5033569;28;19913;-72
2022/11/14 01:41:19;;;;;;;;;;;18.90;54.10;;;;;;5052403;28;19913;-73
2022/11/14 01:43:44;;;;;;;;;;;18.90;54.20;;;;;;5051497;28;19912;-73
2022/11/14 01:46:21;;;;;;;;;;;18.90;54.20;;;;;;5050513;28;20047;-72
2022/11/14 01:48:48;;;;;;;;;;;18.90;54.20;;;;;;5033415;28;19917;-73
2022/11/14 01:51:18;;;;;;;;;;;18.90;54.10;;;;;;5033704;28;19966;-72
2022/11/14 01:53:44;;;;;;;;;;;18.90;54.10;;;;;;5032347;28;19913;-72
2022/11/14 01:56:10;;;;;;;;;;;18.90;54.20;;;;;;5033000;28;19917;-73
2022/11/14 01:58:36;;;;;;;;;;;18.90;54.10;;;;;;5046551;28;19913;-72
2022/11/14 02:01:01;;;;;;;;;;;18.90;54.20;;;;;;5033052;28;20015;-73
2022/11/14 02:03:27;;;;;;;;;;;18.90;54.20;;;;;;5047178;28;19913;-72
2022/11/14 02:05:52;;;;;;;;;;;18.80;54.20;;;;;;5025461;28;19921;-73
2022/11/14 02:08:18;;;;;;;;;;;18.90;54.20;;;;;;5051328;28;19917;-72
2022/11/14 02:10:43;;;;;;;;;;;18.90;54.10;;;;;;5049934;28;19967;-72
2022/11/14 02:13:08;;;;;;;;;;;18.90;54.10;;;;;;5050239;28;19966;-73
2022/11/14 02:15:34;;;;;;;;;;;18.90;54.10;;;;;;5044656;28;20000;-73
2022/11/14 02:18:00;;;;;;;;;;;18.80;54.10;;;;;;5044149;28;19908;-72
2022/11/14 02:20:30;;;;;;;;;;;18.80;54.10;;;;;;5048844;28;19916;-72
2022/11/14 02:22:55;;;;;;;;;;;18.80;54.10;;;;;;5038642;28;20384;-71
2022/11/14 02:25:21;;;;;;;;;;;18.90;54.20;;;;;;5026447;28;19913;-72
2022/11/14 02:27:46;;;;;;;;;;;18.90;54.10;;;;;;5047388;28;19913;-72
2022/11/14 02:30:13;;;;;;;;;;;19.00;54.40;;;;;;5045129;28;20444;-73
2022/11/14 02:32:38;;;;;;;;;;;19.00;54.30;;;;;;5029961;28;20297;-73
2022/11/14 02:35:04;;;;;;;;;;;19.10;54.50;;;;;;5040366;28;19913;-72
2022/11/14 02:37:29;;;;;;;;;;;19.30;54.10;;;;;;5033811;28;19943;-73
2022/11/14 02:39:55;;;;;;;;;;;19.50;53.80;;;;;;5048534;28;19913;-72
2022/11/14 02:42:20;;;;;;;;;;;19.70;53.40;;;;;;5032553;28;20310;-73
2022/11/14 02:44:46;;;;;;;;;;;19.90;53.00;;;;;;5047487;28;20301;-72
2022/11/14 02:47:11;;;;;;;;;;;20.00;52.60;;;;;;5051469;28;19913;-72
2022/11/14 02:49:37;;;;;;;;;;;20.10;52.40;;;;;;5031219;28;20058;-72
2022/11/14 02:52:02;;;;;;;;;;;20.20;52.10;;;;;;5050933;28;19924;-72
2022/11/14 02:54:28;;;;;;;;;;;20.30;52.00;;;;;;5032711;28;19917;-72
2022/11/14 02:56:53;;;;;;;;;;;20.30;51.90;;;;;;5032983;28;19916;-73
2022/11/14 02:59:18;;;;;;;;;;;20.30;52.00;;;;;;5045827;28;20380;-72
2022/11/14 03:01:44;;;;;;;;;;;20.30;52.00;;;;;;5050559;28;20291;-72
2022/11/14 03:04:09;;;;;;;;;;;20.20;51.90;;;;;;5047379;28;20444;-73
2022/11/14 03:06:35;;;;;;;;;;;20.20;51.90;;;;;;5044392;28;19912;-72
2022/11/14 03:09:00;;;;;;;;;;;20.20;51.90;;;;;;5050111;28;20351;-72
2022/11/14 03:11:26;;;;;;;;;;;20.30;51.90;;;;;;5051613;28;19917;-73
2022/11/14 03:13:51;;;;;;;;;;;20.30;51.90;;;;;;5029362;28;20381;-72
2022/11/14 03:16:17;;;;;;;;;;;20.30;51.80;;;;;;5044472;28;19920;-71
2022/11/14 03:18:42;;;;;;;;;;;20.30;51.80;;;;;;5018248;28;20437;-73
2022/11/14 03:21:09;;;;;;;;;;;20.30;51.60;;;;;;5032827;28;20404;-73
2022/11/14 03:23:34;;;;;;;;;;;20.30;51.50;;;;;;5030761;28;19948;-73
2022/11/14 03:26:01;;;;;;;;;;;20.20;51.40;;;;;;5031172;28;19955;-73
2022/11/14 03:28:27;;;;;;;;;;;20.20;51.50;;;;;;5048971;28;19917;-73
2022/11/14 03:30:53;;;;;;;;;;;20.10;51.40;;;;;;5047259;28;19927;-72
2022/11/14 03:33:18;;;;;;;;;;;20.10;51.50;;;;;;5049117;28;19917;-72
2022/11/14 03:35:44;;;;;;;;;;;20.10;51.50;;;;;;5050739;28;19995;-72
2022/11/14 03:38:09;;;;;;;;;;;20.10;51.50;;;;;;5033315;28;19921;-73
2022/11/14 03:40:38;;;;;;;;;;;20.10;51.50;;;;;;5050848;28;19917;-72
2022/11/14 03:43:03;;;;;;;;;;;20.10;51.40;;;;;;5036096;28;19956;-73
2022/11/14 03:45:29;;;;;;;;;;;20.10;51.50;;;;;;5050851;28;20061;-73
2022/11/14 03:47:54;;;;;;;;;;;20.10;51.40;;;;;;5045530;28;19913;-72
2022/11/14 03:50:20;;;;;;;;;;;20.10;51.40;;;;;;5052409;28;19959;-73
2022/11/14 03:52:47;;;;;;;;;;;20.10;51.30;;;;;;5036361;28;19923;-71
2022/11/14 03:55:13;;;;;;;;;;;20.10;51.30;;;;;;5053076;28;20879;-72
2022/11/14 03:57:38;;;;;;;;;;;20.20;51.40;;;;;;5053848;28;19963;-72
2022/11/14 04:00:04;;;;;;;;;;;20.10;51.30;;;;;;5053850;28;19909;-72
2022/11/14 04:02:29;;;;;;;;;;;20.10;51.20;;;;;;5053370;28;19912;-72
2022/11/14 04:04:54;;;;;;;;;;;20.20;51.40;;;;;;5041285;28;20386;-73
2022/11/14 04:07:21;;;;;;;;;;;20.20;51.30;;;;;;5029057;28;20280;-72
2022/11/14 04:09:46;;;;;;;;;;;20.20;51.10;;;;;;5052257;28;19913;-72
2022/11/14 04:12:12;;;;;;;;;;;20.20;51.20;;;;;;5035290;28;19931;-72
2022/11/14 04:14:38;;;;;;;;;;;20.20;51.10;;;;;;5051760;28;20395;-72
2022/11/14 04:17:03;;;;;;;;;;;20.20;51.30;;;;;;5054124;28;19916;-71
2022/11/14 04:19:28;;;;;;;;;;;20.20;51.20;;;;;;5052128;28;20003;-72
2022/11/14 04:21:54;;;;;;;;;;;20.20;51.00;;;;;;5035125;28;20292;-72
2022/11/14 04:24:19;;;;;;;;;;;20.20;51.00;;;;;;5053869;28;19920;-73
2022/11/14 04:26:45;;;;;;;;;;;20.20;51.00;;;;;;5035245;28;19917;-73
2022/11/14 04:29:10;;;;;;;;;;;20.20;51.00;;;;;;5051723;28;19913;-73
2022/11/14 04:31:36;;;;;;;;;;;20.20;51.10;;;;;;5051233;28;19913;-71
2022/11/14 04:34:01;;;;;;;;;;;20.20;51.00;;;;;;5049940;28;19991;-72
2022/11/14 04:36:27;;;;;;;;;;;20.20;51.00;;;;;;5009877;28;19921;-73
2022/11/14 04:38:52;;;;;;;;;;;20.20;51.00;;;;;;5052266;28;19970;-72
2022/11/14 04:41:17;;;;;;;;;;;20.20;51.00;;;;;;5053779;28;19940;-72
2022/11/14 04:43:43;;;;;;;;;;;20.20;51.10;;;;;;5051588;28;19920;-72
2022/11/14 04:46:08;;;;;;;;;;;20.10;51.00;;;;;;5037668;28;20020;-72
2022/11/14 04:48:34;;;;;;;;;;;20.10;51.00;;;;;;5049713;28;19915;-72
2022/11/14 04:50:59;;;;;;;;;;;20.10;51.00;;;;;;5053116;28;19916;-71
2022/11/14 04:53:25;;;;;;;;;;;20.10;51.30;;;;;;5047744;28;19909;-73
2022/11/14 04:55:50;;;;;;;;;;;20.10;51.00;;;;;;5044166;28;19913;-72
2022/11/14 04:58:15;;;;;;;;;;;20.10;51.00;;;;;;5050573;28;19913;-72
2022/11/14 05:00:41;;;;;;;;;;;20.10;51.00;;;;;;5034538;28;20038;-72
2022/11/14 05:03:07;;;;;;;;;;;20.10;51.00;;;;;;5035166;28;20361;-72
2022/11/14 05:05:32;;;;;;;;;;;20.10;50.90;;;;;;5051668;28;20011;-72
2022/11/14 05:07:58;;;;;;;;;;;20.20;51.10;;;;;;5053250;28;19919;-72
2022/11/14 05:10:23;;;;;;;;;;;20.20;51.00;;;;;;5035227;28;19975;-73
2022/11/14 05:12:51;;;;;;;;;;;20.20;51.00;;;;;;5033889;28;20442;-72
2022/11/14 05:15:17;;;;;;;;;;;20.20;51.00;;;;;;5034829;28;19908;-72
2022/11/14 05:17:42;;;;;;;;;;;20.20;51.10;;;;;;5042006;28;19921;-72
2022/11/14 05:20:08;;;;;;;;;;;20.20;51.00;;;;;;5052579;28;19912;-72
2022/11/14 05:22:33;;;;;;;;;;;20.20;51.00;;;;;;5051501;28;19970;-73
2022/11/14 05:24:59;;;;;;;;;;;20.20;51.00;;;;;;5028101;28;19916;-72
2022/11/14 05:27:24;;;;;;;;;;;20.20;51.00;;;;;;5050919;28;19996;-71
2022/11/14 05:29:50;;;;;;;;;;;20.20;50.90;;;;;;5051035;28;19916;-72
2022/11/14 05:32:15;;;;;;;;;;;20.20;50.90;;;;;;5052479;28;19919;-72
2022/11/14 05:34:41;;;;;;;;;;;20.20;51.20;;;;;;5052157;28;19908;-72
2022/11/14 05:37:07;;;;;;;;;;;20.20;51.00;;;;;;5046026;28;19969;-72
2022/11/14 05:39:32;;;;;;;;;;;20.20;51.00;;;;;;5033106;28;19916;-71
2022/11/14 05:41:58;;;;;;;;;;;20.20;50.90;;;;;;5050261;28;20008;-73
2022/11/14 05:44:23;;;;;;;;;;;20.20;50.90;;;;;;5050178;28;19913;-73
2022/11/14 05:46:49;;;;;;;;;;;20.20;50.90;;;;;;5051122;28;20426;-72
2022/11/14 05:49:14;;;;;;;;;;;20.20;51.50;;;;;;5052248;28;19913;-72
2022/11/14 05:51:40;;;;;;;;;;;20.20;51.00;;;;;;5046169;28;19925;-72
2022/11/14 05:54:05;;;;;;;;;;;20.10;50.90;;;;;;5048243;28;19956;-72
2022/11/14 05:56:30;;;;;;;;;;;20.20;50.90;;;;;;5050572;28;19913;-73
2022/11/14 05:58:56;;;;;;;;;;;20.20;50.80;;;;;;5051169;28;19995;-72
2022/11/14 06:01:21;;;;;;;;;;;20.20;51.00;;;;;;5052170;28;19984;-73
2022/11/14 06:03:47;;;;;;;;;;;20.20;50.90;;;;;;5043072;28;19909;-73
2022/11/14 06:06:14;;;;;;;;;;;20.20;50.70;;;;;;5018800;28;19917;-72
2022/11/14 06:08:40;;;;;;;;;;;20.20;50.70;;;;;;5030311;28;19920;-72
2022/11/14 06:11:06;;;;;;;;;;;20.20;50.70;;;;;;5051200;28;19913;-73
2022/11/14 06:13:32;;;;;;;;;;;20.20;50.70;;;;;;5031056;28;19967;-73
2022/11/14 06:16:01;;;;;;;;;;;20.20;50.60;;;;;;5025932;28;19952;-73
2022/11/14 06:18:26;;;;;;;;;;;20.20;50.70;;;;;;5046852;28;20372;-72
2022/11/14 06:20:52;;;;;;;;;;;20.20;50.90;;;;;;5051754;28;19920;-73
2022/11/14 06:23:17;;;;;;;;;;;20.20;51.00;;;;;;5033774;28;19913;-73
2022/11/14 06:25:43;;;;;;;;;;;20.20;50.90;;;;;;5052063;28;19917;-72
2022/11/14 06:28:08;;;;;;;;;;;20.20;50.70;;;;;;5050548;28;19940;-73
2022/11/14 06:30:34;;;;;;;;;;;20.20;50.60;;;;;;5047266;28;19917;-73
2022/11/14 06:32:59;;;;;;;;;;;20.30;51.20;;;;;;5027195;28;19963;-71
2022/11/14 06:35:25;;;;;;;;;;;20.20;50.90;;;;;;5031847;28;19916;-73
2022/11/14 06:37:50;;;;;;;;;;;20.20;50.80;;;;;;5032356;28;19971;-73
2022/11/14 06:40:16;;;;;;;;;;;20.20;50.90;;;;;;5033659;28;19909;-72
2022/11/14 06:42:41;;;;;;;;;;;20.20;50.80;;;;;;5050273;28;19913;-72
2022/11/14 06:45:07;;;;;;;;;;;20.20;50.90;;;;;;5030764;28;19913;-72
2022/11/14 06:47:32;;;;;;;;;;;20.20;50.90;;;;;;5032986;28;19998;-73
2022/11/14 06:49:58;;;;;;;;;;;20.20;50.80;;;;;;5042751;28;19924;-72
2022/11/14 06:52:25;;;;;;;;;;;20.20;50.70;;;;;;5044874;28;19916;-73
2022/11/14 06:54:50;;;;;;;;;;;20.20;50.90;;;;;;5050548;28;19921;-73
2022/11/14 06:57:16;;;;;;;;;;;20.20;50.90;;;;;;5050174;28;19920;-73
2022/11/14 06:59:41;;;;;;;;;;;20.20;50.90;;;;;;5049707;28;20007;-72
2022/11/14 07:02:10;;;;;;;;;;;20.20;50.90;;;;;;5032994;28;19913;-72
2022/11/14 07:04:35;;;;;;;;;;;20.20;50.80;;;;;;5043602;28;20266;-72
2022/11/14 07:07:01;;;;;;;;;;;20.20;50.70;;;;;;5038921;28;19916;-72
2022/11/14 07:09:26;;;;;;;;;;;20.20;50.70;;;;;;5049811;28;19917;-73
2022/11/14 07:11:52;;;;;;;;;;;20.20;50.70;;;;;;5051455;28;20019;-72
2022/11/14 07:14:17;;;;;;;;;;;20.20;50.60;;;;;;5048978;28;20383;-72
2022/11/14 07:16:42;;;;;;;;;;;20.20;50.60;;;;;;5050977;28;20384;-72
2022/11/14 07:19:08;;;;;;;;;;;20.20;50.60;;;;;;5044373;28;20319;-72
2022/11/14 07:21:34;;;;;;;;;;;20.20;50.70;;;;;;5035336;28;19940;-72
2022/11/14 07:23:59;;;;;;;;;;;20.20;50.90;;;;;;5036668;28;19908;-72
2022/11/14 07:26:25;;;;;;;;;;;20.20;50.80;;;;;;5054863;28;20420;-72
2022/11/14 07:28:50;;;;;;;;;;;20.30;50.80;;;;;;5020166;28;20265;-72
2022/11/14 07:31:16;;;;;;;;;;;20.20;50.90;;;;;;5054919;28;19909;-71
2022/11/14 07:33:42;;;;;;;;;;;20.20;50.90;;;;;;5054478;28;20425;-72
2022/11/14 07:36:07;;;;;;;;;;;20.20;50.70;;;;;;5031492;28;19913;-72
2022/11/14 07:38:33;;;;;;;;;;;20.20;50.70;;;;;;5036112;28;19917;-72
2022/11/14 07:40:59;;;;;;;;;;;20.20;50.80;;;;;;5035486;28;19915;-72
2022/11/14 07:43:25;;;;;;;;;;;20.20;50.80;;;;;;5034472;28;19998;-72
2022/11/14 07:45:50;;;;;;;;;;;20.20;50.80;;;;;;5036495;28;20003;-72
2022/11/14 07:48:15;;;;;;;;;;;20.20;51.20;;;;;;5050406;28;19913;-73
2022/11/14 07:50:41;;;;;;;;;;;20.20;51.20;;;;;;5032493;28;19909;-72
2022/11/14 07:53:07;;;;;;;;;;;20.20;50.90;;;;;;5029251;28;20011;-72
2022/11/14 07:55:36;;;;;;;;;;;20.20;50.70;;;;;;5027773;28;20432;-73
2022/11/14 07:58:01;;;;;;;;;;;20.20;50.60;;;;;;5032154;28;20094;-72
2022/11/14 08:00:27;;;;;;;;;;;20.20;50.70;;;;;;5050264;28;19984;-72
2022/11/14 08:02:52;;;;;;;;;;;20.20;50.60;;;;;;5052245;28;20358;-72
2022/11/14 08:05:18;;;;;;;;;;;20.20;50.60;;;;;;5022756;28;19919;-72
2022/11/14 08:07:43;;;;;;;;;;;20.20;50.50;;;;;;5036087;28;19952;-72
2022/11/14 08:10:10;;;;;;;;;;;20.20;50.50;;;;;;5053623;28;20139;-72
2022/11/14 08:12:38;;;;;;;;;;;20.20;50.40;;;;;;5034280;28;20376;-73
2022/11/14 08:15:04;;;;;;;;;;;20.30;50.30;;;;;;5030857;28;20406;-72
2022/11/14 08:17:30;;;;;;;;;;;20.30;50.20;;;;;;5032597;28;19917;-73
2022/11/14 08:19:55;;;;;;;;;;;20.30;50.20;;;;;;5018027;28;20319;-73
2022/11/14 08:22:21;;;;;;;;;;;20.30;50.00;;;;;;5053796;28;19909;-73
2022/11/14 08:24:46;;;;;;;;;;;20.30;50.00;;;;;;5051438;28;19916;-72
2022/11/14 08:27:11;;;;;;;;;;;20.30;49.90;;;;;;5051793;28;19967;-73
2022/11/14 08:29:37;;;;;;;;;;;20.30;49.80;;;;;;5034578;28;20114;-73
2022/11/14 08:32:02;;;;;;;;;;;20.40;49.70;;;;;;5052539;28;19925;-72
2022/11/14 08:34:28;;;;;;;;;;;20.40;49.60;;;;;;5053690;28;19928;-71
2022/11/14 08:36:55;;;;;;;;;;;20.30;49.50;;;;;;5050415;28;19947;-72
2022/11/14 08:39:21;;;;;;;;;;;20.30;49.50;;;;;;5018896;28;19935;-73
2022/11/14 08:41:46;;;;;;;;;;;20.30;49.50;;;;;;5052286;28;19909;-72
2022/11/14 08:44:12;;;;;;;;;;;20.30;49.50;;;;;;5052192;28;20506;-72
2022/11/14 08:46:37;;;;;;;;;;;20.30;49.50;;;;;;5051625;28;19919;-73
2022/11/14 08:49:03;;;;;;;;;;;20.30;49.60;;;;;;5050743;28;20392;-72
2022/11/14 08:51:28;;;;;;;;;;;20.30;49.60;;;;;;5028874;28;19921;-72
2022/11/14 08:53:54;;;;;;;;;;;20.30;49.70;;;;;;5032141;28;19920;-72
2022/11/14 08:56:19;;;;;;;;;;;20.30;49.60;;;;;;5051467;28;20333;-72
2022/11/14 08:58:44;;;;;;;;;;;20.30;49.60;;;;;;5030617;28;19917;-72
2022/11/14 09:01:10;;;;;;;;;;;20.30;49.70;;;;;;5049190;28;20015;-72
2022/11/14 09:03:35;;;;;;;;;;;20.30;49.90;;;;;;5043092;28;19913;-72
2022/11/14 09:06:01;;;;;;;;;;;20.30;50.00;;;;;;5044750;28;19975;-72
2022/11/14 09:08:26;;;;;;;;;;;20.30;50.00;;;;;;5039129;28;19925;-72
2022/11/14 09:10:52;;;;;;;;;;;20.30;49.70;;;;;;5030976;28;19943;-72
2022/11/14 09:13:17;;;;;;;;;;;20.40;50.10;;;;;;5024265;28;20416;-72
2022/11/14 09:15:43;;;;;;;;;;;20.40;50.60;;;;;;5014438;28;20036;-71
2022/11/14 09:18:08;;;;;;;;;;;20.40;51.10;;;;;;5010843;28;19923;-72
2022/11/14 09:20:34;;;;;;;;;;;20.30;51.10;;;;;;5029674;28;19924;-72
2022/11/14 09:23:00;;;;;;;;;;;20.40;51.40;;;;;;5048741;28;19913;-72
2022/11/14 09:25:26;;;;;;;;;;;20.40;51.30;;;;;;5049204;28;19990;-70
2022/11/14 09:27:51;;;;;;;;;;;20.50;51.30;;;;;;5052027;28;19959;-72
2022/11/14 09:30:17;;;;;;;;;;;20.70;51.20;;;;;;5031334;28;19913;-72
2022/11/14 09:32:42;;;;;;;;;;;20.80;51.10;;;;;;5036341;28;20019;-72
2022/11/14 09:35:08;;;;;;;;;;;20.90;51.00;;;;;;5045188;28;19916;-71
2022/11/14 09:37:33;;;;;;;;;;;20.90;50.90;;;;;;5046653;28;19935;-72
2022/11/14 09:39:59;;;;;;;;;;;21.00;50.90;;;;;;5030249;28;19960;-72
2022/11/14 09:42:53;;;;;;;;;;;20.90;51.10;;;;;;5051639;28;20364;-72
2022/11/14 09:45:19;;;;;;;;;;;20.90;51.20;;;;;;5023829;28;19921;-72
2022/11/14 09:47:49;;;;;;;;;;;20.90;51.30;;;;;;5048443;28;21297;-72
2022/11/14 09:50:16;;;;;;;;;;;21.00;51.40;;;;;;5032374;28;19927;-72
2022/11/14 09:53:02;;;;;;;;;;;21.00;51.20;;;;;;5048370;28;20400;-73
2022/11/14 09:55:28;;;;;;;;;;;21.10;51.00;;;;;;5030617;28;19940;-72
2022/11/14 09:57:54;;;;;;;;;;;21.20;50.80;;;;;;5051791;28;19913;-72
2022/11/14 10:00:20;;;;;;;;;;;21.20;50.80;;;;;;5027348;28;19920;-73
2022/11/14 10:02:47;;;;;;;;;;;21.10;50.70;;;;;;5030963;28;19917;-72
2022/11/14 10:05:15;;;;;;;;;;;21.10;51.00;;;;;;5046799;28;19956;-72
2022/11/14 10:07:44;;;;;;;;;;;21.10;51.10;;;;;;5022586;28;19916;-72
2022/11/14 10:10:25;;;;;;;;;;;21.10;51.10;;;;;;5050414;28;19912;-72
2022/11/14 10:12:53;;;;;;;;;;;21.10;51.00;;;;;;5047004;28;19921;-72
2022/11/14 10:15:25;;;;;;;;;;;21.10;51.00;;;;;;5048751;28;20054;-72
2022/11/14 10:17:54;;;;;;;;;;;21.20;50.90;;;;;;5031505;28;19951;-73
2022/11/14 10:20:23;;;;;;;;;;;21.20;50.90;;;;;;5033815;28;20373;-72
2022/11/14 10:22:52;;;;;;;;;;;21.30;50.80;;;;;;5025550;28;19924;-72
2022/11/14 10:25:25;;;;;;;;;;;21.30;50.80;;;;;;5050472;28;20779;-72
2022/11/14 10:27:53;;;;;;;;;;;21.30;50.60;;;;;;5047964;28;19952;-72
2022/11/14 10:30:19;;;;;;;;;;;21.30;50.60;;;;;;5050883;28;19913;-73
2022/11/14 10:32:44;;;;;;;;;;;21.40;50.50;;;;;;5051314;28;19916;-72
2022/11/14 10:35:14;;;;;;;;;;;21.30;50.50;;;;;;5051295;28;20412;-74
2022/11/14 10:38:15;;;;;;;;;;;21.40;50.50;;;;;;5050450;28;19960;-72
2022/11/14 10:40:47;;;;;;;;;;;21.30;50.60;;;;;;4943147;28;19915;-72
2022/11/14 10:43:20;;;;;;;;;;;21.30;50.60;;;;;;5034110;28;19912;-71
2022/11/14 10:45:47;;;;;;;;;;;21.30;50.50;;;;;;5029167;28;19967;-72
2022/11/14 10:48:29;;;;;;;;;;;21.40;50.50;;;;;;5030130;28;19928;-73
2022/11/14 10:50:56;;;;;;;;;;;21.40;50.50;;;;;;5034363;28;19959;-72
2022/11/14 10:53:34;;;;;;;;;;;21.40;50.50;;;;;;5034573;28;19920;-71
2022/11/14 10:55:59;;;;;;;;;;;21.40;50.50;;;;;;5055386;28;19916;-72
2022/11/14 10:58:24;;;;;;;;;;;21.40;50.40;;;;;;5037021;28;20004;-72
2022/11/14 11:00:50;;;;;;;;;;;21.40;50.40;;;;;;5036725;28;19917;-73
2022/11/14 11:03:15;;;;;;;;;;;21.40;50.30;;;;;;5036589;28;19909;-73
2022/11/14 11:05:51;;;;;;;;;;;21.40;50.20;;;;;;5036662;28;20468;-72
2022/11/14 11:13:55;;;;;;;;;;;21.50;50.20;;;;;;5039164;28;19982;-72
2022/11/14 11:16:21;;;;;;;;;;;21.50;50.20;;;;;;5037287;28;19916;-73
2022/11/14 11:18:47;;;;;;;;;;;21.50;50.10;;;;;;5053306;28;19916;-72
2022/11/14 11:21:17;;;;;;;;;;;21.60;50.10;;;;;;5052985;28;19912;-73
2022/11/14 11:23:52;;;;;;;;;;;21.60;50.00;;;;;;5020158;28;19913;-73
2022/11/14 11:26:27;;;;;;;;;;;21.60;50.00;;;;;;5054160;28;19913;-72
2022/11/14 11:29:00;;;;;;;;;;;21.60;50.00;;;;;;5036109;28;19921;-73
2022/11/14 11:31:25;;;;;;;;;;;21.70;50.00;;;;;;5036803;28;19909;-73
2022/11/14 11:33:51;;;;;;;;;;;21.70;50.00;;;;;;5053509;28;20041;-73
2022/11/14 11:36:17;;;;;;;;;;;21.70;49.90;;;;;;5048267;28;19920;-73
2022/11/14 11:38:42;;;;;;;;;;;21.70;49.90;;;;;;5052427;28;19913;-73
2022/11/14 11:41:28;;;;;;;;;;;21.70;49.90;;;;;;5036505;28;19913;-73
2022/11/14 11:43:54;;;;;;;;;;;21.70;49.90;;;;;;5035903;28;20470;-73
2022/11/14 11:46:21;;;;;;;;;;;21.80;49.80;;;;;;5025218;28;19917;-73
2022/11/14 11:48:48;;;;;;;;;;;21.80;49.70;;;;;;5034996;28;19921;-73
2022/11/14 11:51:17;;;;;;;;;;;21.80;49.60;;;;;;5036294;28;19962;-72
2022/11/14 11:53:45;;;;;;;;;;;21.80;50.30;;;;;;5036109;28;20258;-73
2022/11/14 11:56:11;;;;;;;;;;;21.90;49.70;;;;;;5035575;28;19909;-72
2022/11/14 11:58:40;;;;;;;;;;;21.90;49.60;;;;;;5035070;28;19920;-73
2022/11/14 12:01:08;;;;;;;;;;;22.00;49.70;;;;;;5032027;28;20420;-73
2022/11/14 12:03:34;;;;;;;;;;;22.00;49.60;;;;;;5028959;28;20307;-73
2022/11/14 12:06:23;;;;;;;;;;;22.00;49.80;;;;;;5049667;28;19942;-73
2022/11/14 12:09:07;;;;;;;;;;;22.00;49.70;;;;;;5040843;28;20387;-72
2022/11/14 12:11:33;;;;;;;;;;;22.00;49.80;;;;;;5024361;28;20015;-73
2022/11/14 12:14:02;;;;;;;;;;;22.00;49.70;;;;;;5032961;28;19916;-73
2022/11/14 12:16:34;;;;;;;;;;;22.00;49.70;;;;;;5050360;28;19913;-73
2022/11/14 12:19:11;;;;;;;;;;;22.10;49.70;;;;;;5027922;28;20368;-74
2022/11/14 12:21:47;;;;;;;;;;;22.00;49.70;;;;;;5037722;28;19932;-72
2022/11/14 12:24:26;;;;;;;;;;;22.10;49.60;;;;;;5024664;28;20720;-72
2022/11/14 12:27:10;;;;;;;;;;;22.10;49.70;;;;;;5048699;28;20016;-72
2022/11/14 12:29:54;;;;;;;;;;;22.10;49.70;;;;;;5044276;28;19912;-73
2022/11/14 12:32:30;;;;;;;;;;;22.10;49.90;;;;;;5051056;28;19982;-73
2022/11/14 12:34:55;;;;;;;;;;;22.10;49.90;;;;;;5024822;28;19921;-73
2022/11/14 12:37:22;;;;;;;;;;;22.20;49.70;;;;;;5049553;28;19974;-73
2022/11/14 12:40:01;;;;;;;;;;;22.40;49.50;;;;;;5052133;28;19960;-72
2022/11/14 12:42:26;;;;;;;;;;;22.50;49.10;;;;;;5035323;28;20360;-72
2022/11/14 12:44:52;;;;;;;;;;;22.60;48.90;;;;;;5035003;28;20005;-72
2022/11/14 12:47:18;;;;;;;;;;;22.70;48.70;;;;;;5033557;28;19912;-73
2022/11/14 12:49:46;;;;;;;;;;;22.80;48.60;;;;;;5046517;28;19921;-72
2022/11/14 12:52:30;;;;;;;;;;;22.90;48.40;;;;;;5050867;28;19956;-73
2022/11/14 12:54:56;;;;;;;;;;;23.00;48.30;;;;;;5051278;28;19913;-72
2022/11/14 12:57:46;;;;;;;;;;;23.10;48.30;;;;;;5013491;28;20359;-73
2022/11/14 13:00:11;;;;;;;;;;;23.10;48.20;;;;;;5046981;28;19921;-72
2022/11/14 13:02:37;;;;;;;;;;;23.10;48.20;;;;;;5033881;28;19921;-72
2022/11/14 13:05:15;;;;;;;;;;;23.20;48.20;;;;;;5034378;28;19913;-73
2022/11/14 13:07:59;;;;;;;;;;;23.20;48.10;;;;;;5019200;28;20284;-73
2022/11/14 13:10:44;;;;;;;;;;;23.20;48.20;;;;;;5045387;28;19913;-72
2022/11/14 13:22:00;;;;;;;;;;;23.30;48.50;;;;;;5052672;28;19983;-72
2022/11/14 13:24:26;;;;;;;;;;;23.20;48.60;;;;;;5045281;28;19920;-72
2022/11/14 13:26:52;;;;;;;;;;;23.10;48.70;;;;;;5028465;28;19959;-72
2022/11/14 13:29:36;;;;;;;;;;;23.00;48.90;;;;;;5048496;28;19920;-72
2022/11/14 13:32:02;;;;;;;;;;;22.90;48.90;;;;;;5044211;28;20404;-74
2022/11/14 13:34:46;;;;;;;;;;;22.80;49.40;;;;;;5049577;28;19917;-73
2022/11/14 13:37:22;;;;;;;;;;;22.70;49.60;;;;;;5044338;28;19929;-73
2022/11/14 13:39:57;;;;;;;;;;;22.50;49.80;;;;;;5033749;28;20368;-73
2022/11/14 13:42:28;;;;;;;;;;;22.40;50.00;;;;;;5026041;28;19916;-72
2022/11/14 13:44:57;;;;;;;;;;;22.30;50.10;;;;;;5050480;28;19921;-73
2022/11/14 13:47:41;;;;;;;;;;;22.30;50.10;;;;;;5031857;28;19924;-72
2022/11/14 13:50:13;;;;;;;;;;;22.20;50.50;;;;;;5048836;28;19913;-73
2022/11/14 13:52:39;;;;;;;;;;;22.20;50.40;;;;;;5028195;28;19921;-72
2022/11/14 13:55:05;;;;;;;;;;;22.10;50.80;;;;;;5048525;28;20285;-73
2022/11/14 13:57:49;;;;;;;;;;;22.10;50.70;;;;;;5047365;28;19920;-73
2022/11/14 14:00:16;;;;;;;;;;;22.10;50.70;;;;;;5046245;28;20396;-73
2022/11/14 14:02:44;;;;;;;;;;;22.00;50.70;;;;;;5031367;28;19913;-72
2022/11/14 14:05:10;;;;;;;;;;;22.00;50.90;;;;;;5045749;28;19920;-73
2022/11/14 14:07:47;;;;;;;;;;;22.00;50.90;;;;;;5043776;28;20297;-73
2022/11/14 14:10:31;;;;;;;;;;;22.00;50.80;;;;;;5045225;28;19913;-73
2022/11/14 14:13:16;;;;;;;;;;;21.90;50.90;;;;;;5029059;28;20281;-73
2022/11/14 14:15:49;;;;;;;;;;;21.80;51.00;;;;;;5038873;28;19956;-73
2022/11/14 14:18:14;;;;;;;;;;;21.80;50.80;;;;;;5030878;28;19990;-74
2022/11/14 14:20:44;;;;;;;;;;;21.80;50.60;;;;;;5046462;28;20357;-73
2022/11/14 14:23:14;;;;;;;;;;;21.70;50.60;;;;;;5048419;28;19913;-73
2022/11/14 14:25:58;;;;;;;;;;;21.70;50.60;;;;;;5050785;28;19909;-73
2022/11/14 14:28:30;;;;;;;;;;;21.70;50.70;;;;;;5048076;28;19974;-72
2022/11/14 14:31:12;;;;;;;;;;;21.60;51.00;;;;;;5049644;28;19940;-73
2022/11/14 14:33:42;;;;;;;;;;;21.60;51.20;;;;;;5044006;28;19994;-73